Godalming, United Kingdom
Current Conditions -  °F | °C
As of 2:20 PM on Thursday 30 Oct 2014 (Local Time) from EGLF Reporting Station
Scattered Clouds Scattered Clouds  
Wind Chill: 63°   Ceiling: Unl
Heat Index: 63°   Visibility: 6mi
Dew Point: 59°   Wind: 8mph
Humidity: 88%   Direction: 180°S
Pressure: 30.06"   Gusts: NA
Location:  51.18°N, 0.62°W
Report Text: EGLF 301420Z 18007KT 150V210 9999 SCT014 SCT018 17/15 Q1018
Loading
Personal Weather Stations






























Interactive Weather Map
Tropical Storm Tracking
New forecast layout! Learn more

10-Day Weather Forecast

Advertisements
Track Severe Weather on mobile